Observations for Trim Market St
| Time | AQI | Temp °C | Hum % | Pres Pa | CO μg/m³ | H₂S μg/m³ | NO μg/m³ | NO₂ μg/m³ | O₃ μg/m³ | SO₂ μg/m³ | PM1 μg/m³ | PM2.5 μg/m³ | PM10 μg/m³ |
|---|---|---|---|---|---|---|---|---|---|---|---|---|---|
| Tuesday 18 August 2026 | |||||||||||||
| 22:44 | 2 | 15.5 | 83 | 2,147,483,647 | 0.27 | 0 | 2.26 | 9.2 | 44.55 | 0 | 1.43 | 2.89 | 5.89 |
| 22:43 | 2 | 15.5 | 83 | 2,147,483,647 | 0.26 | 0 | 2.26 | 7.34 | 45.87 | 0 | 0.71 | 1.96 | 5.34 |
| 22:42 | 2 | 15.5 | 83 | 2,147,483,647 | 0.26 | 0 | 2.27 | 6.94 | 46.19 | 0 | 2.85 | 4.29 | 7.53 |
| 22:41 | 2 | 15.5 | 83 | 2,147,483,647 | 0.27 | 0 | 2.26 | 8.28 | 53.36 | 0 | 1.43 | 3.36 | 6.98 |
| 22:38 | 2 | 15.5 | 83 | 2,147,483,647 | 0.27 | 0 | 2.32 | 10.42 | 47.67 | 0 | 3.56 | 4.76 | 9.72 |
| 22:36 | 2 | 15.5 | 83 | 2,147,483,647 | 0.28 | 0 | 2.31 | 15.37 | 49.51 | 0 | 0.71 | 1.96 | 4.79 |
| 22:35 | 2 | 15.5 | 83 | 2,147,483,647 | 0.29 | 0 | 2.33 | 10.89 | 46.43 | 0 | 2.14 | 2.43 | 5.89 |
| 22:34 | 2 | 15.5 | 83 | 2,147,483,647 | 0.29 | 0 | 2.32 | 7.78 | 51.89 | 0 | 1.43 | 2.43 | 5.34 |
| 22:33 | 2 | 15.5 | 83 | 2,147,483,647 | 0.3 | 0 | 2.31 | 8.46 | 46.94 | 0 | 2.85 | 5.23 | 8.63 |
| 22:32 | 2 | 15.5 | 83 | 2,147,483,647 | 0.3 | 0 | 2.29 | 7.19 | 49.36 | 0 | 1.43 | 3.36 | 6.44 |
| 22:31 | 2 | 15.5 | 83 | 2,147,483,647 | 0.31 | 0 | 2.31 | 8.45 | 50.58 | 0 | 1.43 | 2.89 | 5.89 |
| 22:30 | 2 | 15.5 | 83 | 2,147,483,647 | 0.31 | 0 | 2.31 | 7.88 | 50.08 | 0 | 2.14 | 2.89 | 6.44 |
| 22:27 | 2 | 15.5 | 83 | 2,147,483,647 | 0.28 | 0 | 2.29 | 11.17 | 45.7 | 0 | 0 | 1.5 | 4.24 |
| 22:26 | 2 | 15.5 | 83 | 2,147,483,647 | 0.3 | 0 | 2.27 | 11.82 | 47.02 | 0 | 0.71 | 1.96 | 5.34 |
| 22:23 | 2 | 15.5 | 83 | 2,147,483,647 | 0.27 | 0 | 2.32 | 10.13 | 49.85 | 0 | 2.14 | 4.77 | 8.08 |
| 22:19 | 2 | 15.5 | 83 | 2,147,483,647 | 0.25 | 0 | 2.34 | 7.83 | 48.24 | 0 | 2.14 | 2.91 | 6.98 |
| 22:16 | 2 | 15.5 | 83 | 2,147,483,647 | 0.27 | 0 | 2.28 | 12.69 | 53.04 | 0 | 0.71 | 2.44 | 6.43 |
| 22:14 | 2 | 15.4 | 83 | 2,147,483,647 | 0.33 | 0 | 2.28 | 7.95 | 47.66 | 0 | 0.71 | 2.44 | 5.88 |
| 22:08 | 2 | 15.5 | 83 | 2,147,483,647 | 0.27 | 0 | 2.28 | 7.96 | 55.38 | 0 | 2.85 | 3.38 | 6.43 |
| 22:07 | 2 | 15.5 | 83 | 2,147,483,647 | 0.26 | 0 | 2.28 | 8.62 | 51.2 | 0 | 0.71 | 1.98 | 5.88 |